Time;durP1;ratioP1;P1;durP2;ratioP2;P2;SDS_P1;SDS_P2;PMS_P1;PMS_P2;Temp;Humidity;BMP_temperature;BMP_pressure;BME280_temperature;BME280_humidity;BME280_pressure;Samples;Min_cycle;Max_cycle;Signal;HPM_P1;HPM_P2
2021/01/13 00:02:20;;;;;;;229.23;121.22;;;51.40;2227.20;;;;;;5033304;28;20518;-55
2021/01/13 00:04:46;;;;;;;215.50;117.85;;;26.50;2201.60;;;;;;5033186;28;20431;-57
2021/01/13 00:07:12;;;;;;;237.65;120.70;;;26.30;2201.60;;;;;;5033056;28;20100;-55
2021/01/13 00:09:38;;;;;;;228.95;116.20;;;26.30;2201.60;;;;;;5033138;28;20088;-54
2021/01/13 00:12:04;;;;;;;239.70;114.13;;;26.20;2201.60;;;;;;5032902;28;20467;-53
2021/01/13 00:14:30;;;;;;;213.30;110.60;;;26.10;2201.60;;;;;;5033046;28;20033;-54
2021/01/13 00:16:56;;;;;;;237.52;114.72;;;26.20;2201.60;;;;;;5032794;28;20033;-54
2021/01/13 00:19:21;;;;;;;210.80;112.85;;;26.30;2201.60;;;;;;5032756;28;20060;-55
2021/01/13 00:21:51;;;;;;;215.70;110.22;;;26.20;2201.60;;;;;;5033081;28;20056;-54
2021/01/13 00:24:18;;;;;;;212.32;114.72;;;26.30;2201.60;;;;;;5032888;28;20091;-54
2021/01/13 00:26:43;;;;;;;213.48;115.40;;;26.20;2201.60;;;;;;5032770;28;20026;-54
2021/01/13 00:29:14;;;;;;;201.63;99.88;;;26.20;2201.60;;;;;;5032868;28;20033;-53
2021/01/13 00:31:40;;;;;;;218.27;105.18;;;26.30;2201.60;;;;;;5032794;28;20026;-53
2021/01/13 00:34:08;;;;;;;204.85;105.35;;;26.20;2201.60;;;;;;5032966;28;20025;-53
2021/01/13 00:36:34;;;;;;;189.90;104.20;;;26.20;2201.60;;;;;;5032482;28;20030;-53
2021/01/13 00:39:00;;;;;;;195.23;102.68;;;26.30;2201.60;;;;;;5032680;28;20032;-54
2021/01/13 00:41:26;;;;;;;185.63;91.78;;;26.30;2201.60;;;;;;5032698;28;20021;-54
2021/01/13 00:43:53;;;;;;;180.60;87.30;;;26.10;2201.60;;;;;;5032377;28;20411;-54
2021/01/13 00:46:19;;;;;;;180.77;88.22;;;25.80;2201.60;;;;;;5032490;28;20029;-54
2021/01/13 00:48:45;;;;;;;200.35;96.18;;;25.70;2201.60;;;;;;5032184;28;20045;-54
2021/01/13 00:51:11;;;;;;;171.85;83.88;;;25.80;2201.60;;;;;;5032221;28;20079;-54
2021/01/13 00:53:37;;;;;;;179.32;90.57;;;25.70;2201.60;;;;;;5032380;28;20431;-53
2021/01/13 00:56:03;;;;;;;161.80;74.47;;;25.70;2201.60;;;;;;5031992;28;20029;-54
2021/01/13 00:58:29;;;;;;;175.00;77.60;;;25.60;2201.60;;;;;;5032426;28;20117;-56
2021/01/13 01:00:55;;;;;;;186.70;81.65;;;0.90;2201.60;;;;;;5031940;28;20053;-54
2021/01/13 01:03:21;;;;;;;217.35;91.57;;;25.70;2201.60;;;;;;5031904;28;20075;-54
2021/01/13 01:05:49;;;;;;;160.55;76.32;;;0.90;2201.60;;;;;;5032109;28;20479;-55
2021/01/13 01:08:15;;;;;;;141.68;68.15;;;25.60;2201.60;;;;;;5031978;28;20022;-54
2021/01/13 01:10:41;;;;;;;122.53;59.78;;;25.60;2201.60;;;;;;5031342;28;20043;-55
2021/01/13 01:13:07;;;;;;;113.47;55.35;;;25.70;2201.60;;;;;;5031972;28;20060;-54
2021/01/13 01:15:33;;;;;;;131.07;63.00;;;25.60;2201.60;;;;;;5031711;28;20034;-54
2021/01/13 01:17:59;;;;;;;165.48;78.38;;;25.60;2201.60;;;;;;5031713;28;20484;-55
2021/01/13 01:20:25;;;;;;;189.75;86.30;;;25.80;2201.60;;;;;;5031715;28;20073;-54
2021/01/13 01:22:55;;;;;;;189.88;93.05;;;25.80;2201.60;;;;;;5031570;28;20053;-54
2021/01/13 01:25:22;;;;;;;138.05;63.17;;;25.80;2201.60;;;;;;5031558;28;20044;-54
2021/01/13 01:27:53;;;;;;;119.00;56.75;;;25.80;2201.60;;;;;;5031910;28;20052;-54
2021/01/13 01:30:20;;;;;;;127.28;57.50;;;25.80;2201.60;;;;;;5031746;28;20022;-54
2021/01/13 01:32:46;;;;;;;129.93;58.75;;;25.90;2201.60;;;;;;5031580;28;20028;-54
2021/01/13 01:35:12;;;;;;;141.38;63.22;;;25.90;2201.60;;;;;;5031382;28;20029;-54
2021/01/13 01:37:39;;;;;;;141.13;65.65;;;25.90;2201.60;;;;;;5031600;28;20056;-54
2021/01/13 01:40:07;;;;;;;148.80;69.45;;;25.90;2201.60;;;;;;5031224;28;20574;-53
2021/01/13 01:42:33;;;;;;;129.48;71.63;;;26.10;2201.60;;;;;;5031354;28;20045;-54
2021/01/13 01:44:59;;;;;;;137.23;63.70;;;25.90;2201.60;;;;;;5031233;28;20493;-54
2021/01/13 01:47:53;;;;;;;143.02;64.32;;;25.90;2201.60;;;;;;5030848;28;20100;-54
2021/01/13 01:50:22;;;;;;;163.52;73.75;;;25.60;2201.60;;;;;;4989797;28;20072;-53
2021/01/13 01:52:52;;;;;;;153.87;67.23;;;0.90;2201.60;;;;;;4989825;28;20065;-55
2021/01/13 01:55:24;;;;;;;156.57;68.68;;;0.90;2201.60;;;;;;4989831;28;20038;-54
2021/01/13 01:57:58;;;;;;;133.45;60.00;;;0.70;2201.60;;;;;;4989629;28;20471;-54
2021/01/13 02:00:30;;;;;;;;;;;0.60;2201.60;;;;;;4989768;28;20027;-54
2021/01/13 02:03:16;;;;;;;134.80;61.70;;;0.60;2201.60;;;;;;4989552;28;19949;-54
2021/01/13 02:05:43;;;;;;;127.03;58.70;;;0.90;2201.60;;;;;;4989440;28;20073;-54
2021/01/13 02:08:23;;;;;;;151.70;69.25;;;0.90;2201.60;;;;;;4989485;28;20034;-53
2021/01/13 02:10:50;;;;;;;137.88;65.13;;;25.60;2201.60;;;;;;4989492;28;20037;-53
2021/01/13 02:13:19;;;;;;;177.65;69.78;;;0.50;2201.60;;;;;;4989419;28;20034;-54
2021/01/13 02:15:45;;;;;;;150.30;58.47;;;0.60;2201.60;;;;;;4989061;28;20030;-54
2021/01/13 02:18:14;;;;;;;186.07;66.78;;;0.70;2201.60;;;;;;4988998;28;20121;-54
2021/01/13 02:20:44;;;;;;;141.80;60.90;;;0.60;2201.60;;;;;;4989476;28;20776;-56
2021/01/13 02:23:40;;;;;;;132.13;57.92;;;0.70;2201.60;;;;;;4988606;28;20500;-54
2021/01/13 02:26:30;;;;;;;142.38;66.13;;;0.70;2201.60;;;;;;4989001;28;20049;-56
2021/01/13 02:29:23;;;;;;;132.75;60.95;;;0.80;2201.60;;;;;;5030744;28;20446;-54
2021/01/13 02:32:06;;;;;;;141.18;60.03;;;0.60;2201.60;;;;;;5030837;28;20033;-52
2021/01/13 02:35:00;;;;;;;118.63;53.80;;;0.50;2201.60;;;;;;5030557;28;20061;-53
2021/01/13 02:38:04;;;;;;;;;;;0.40;2201.60;;;;;;5030915;28;20025;-53
2021/01/13 02:40:31;;;;;;;124.50;58.22;;;0.40;2201.60;;;;;;5008842;28;20423;-55
2021/01/13 02:43:03;;;;;;;108.90;55.53;;;0.50;2201.60;;;;;;5008606;28;20472;-55
2021/01/13 02:45:38;;;;;;;102.03;51.03;;;0.40;2201.60;;;;;;5008440;28;20547;-55
2021/01/13 02:48:07;;;;;;;99.22;47.75;;;0.60;2201.60;;;;;;5008008;28;20057;-55
2021/01/13 02:50:36;;;;;;;116.25;55.90;;;0.50;2201.60;;;;;;5008214;28;20040;-55
2021/01/13 02:53:30;;;;;;;115.78;58.35;;;0.50;2201.60;;;;;;5008228;28;20042;-56
2021/01/13 02:55:56;;;;;;;95.97;46.65;;;0.60;2201.60;;;;;;5008437;28;20037;-55
2021/01/13 02:58:24;;;;;;;106.20;49.45;;;0.40;2201.60;;;;;;5008115;28;20038;-55
2021/01/13 03:00:50;;;;;;;106.63;54.65;;;0.40;2201.60;;;;;;5008148;28;20033;-55
2021/01/13 03:03:18;;;;;;;101.15;51.67;;;0.60;2201.60;;;;;;5008320;28;20081;-57
2021/01/13 03:05:47;;;;;;;100.07;47.30;;;0.60;2201.60;;;;;;5007907;28;20049;-54
2021/01/13 03:08:14;;;;;;;95.72;46.28;;;0.60;2201.60;;;;;;5008080;28;20034;-54
2021/01/13 03:10:41;;;;;;;101.45;50.42;;;0.70;2201.60;;;;;;5014077;28;20037;-54
2021/01/13 03:13:08;;;;;;;100.47;49.85;;;0.70;2201.60;;;;;;5029927;28;20032;-54
2021/01/13 03:15:35;;;;;;;102.47;47.92;;;0.60;2201.60;;;;;;5029704;28;20042;-54
2021/01/13 03:18:14;;;;;;;90.78;42.70;;;0.60;2201.60;;;;;;5030026;28;20440;-54
2021/01/13 03:21:01;;;;;;;113.78;51.67;;;0.60;2201.60;;;;;;5030141;28;20041;-53
2021/01/13 03:23:56;;;;;;;100.32;47.30;;;0.60;2201.60;;;;;;5029945;28;20033;-57
2021/01/13 03:26:36;;;;;;;152.90;79.72;;;0.70;2201.60;;;;;;5025107;28;20051;-53
2021/01/13 03:29:03;;;;;;;144.95;73.13;;;0.70;2201.60;;;;;;5029892;28;20104;-54
2021/01/13 03:31:31;;;;;;;114.88;54.53;;;0.60;2201.60;;;;;;5029950;28;20035;-53
2021/01/13 03:34:24;;;;;;;88.68;41.67;;;0.70;2201.60;;;;;;5031869;28;20384;-54
2021/01/13 03:36:53;;;;;;;78.97;39.90;;;0.70;2201.60;;;;;;5033946;28;20025;-54
2021/01/13 03:39:22;;;;;;;101.10;50.30;;;0.80;2201.60;;;;;;5034096;28;20025;-54
2021/01/13 03:41:54;;;;;;;99.65;50.75;;;0.70;2201.60;;;;;;5033903;28;20030;-54
2021/01/13 03:44:26;;;;;;;125.30;59.53;;;0.70;2201.60;;;;;;5033669;28;20127;-54
2021/01/13 03:46:54;;;;;;;159.07;78.50;;;0.60;2201.60;;;;;;5033398;28;20030;-53
2021/01/13 03:49:25;;;;;;;149.15;70.45;;;0.60;2201.60;;;;;;5033397;28;20298;-54
2021/01/13 03:52:03;;;;;;;193.38;93.28;;;0.60;2201.60;;;;;;5033411;28;20025;-54
2021/01/13 03:54:36;;;;;;;134.68;62.13;;;0.70;2201.60;;;;;;5033550;28;20064;-53
2021/01/13 03:57:08;;;;;;;146.30;63.25;;;0.80;2201.60;;;;;;5033243;28;20502;-54
2021/01/13 03:59:51;;;;;;;117.53;57.63;;;0.90;2201.60;;;;;;5033056;28;20029;-54
2021/01/13 04:02:22;;;;;;;104.75;49.38;;;0.90;2201.60;;;;;;5033316;28;20117;-53
2021/01/13 04:05:17;;;;;;;111.10;56.67;;;0.90;2201.60;;;;;;5033269;28;20084;-54
2021/01/13 04:07:44;;;;;;;112.03;55.38;;;0.70;2201.60;;;;;;4991463;28;20027;-54
2021/01/13 04:10:12;;;;;;;95.68;48.97;;;0.70;2201.60;;;;;;4991597;28;20038;-54
2021/01/13 04:12:49;;;;;;;114.43;53.63;;;0.80;2201.60;;;;;;4991645;28;20493;-54
2021/01/13 04:15:20;;;;;;;101.50;45.47;;;0.90;2201.60;;;;;;4991338;28;20069;-54
2021/01/13 04:17:47;;;;;;;107.03;46.47;;;0.70;2201.60;;;;;;4991417;28;20027;-53
2021/01/13 04:20:14;;;;;;;104.78;49.90;;;0.40;2201.60;;;;;;4991328;28;20105;-54
2021/01/13 04:22:39;;;;;;;105.97;47.40;;;0.20;2201.60;;;;;;4991367;28;20494;-53
2021/01/13 04:25:06;;;;;;;114.68;50.65;;;0.30;2201.60;;;;;;4991240;28;20449;-54
2021/01/13 04:27:32;;;;;;;100.43;45.65;;;0.10;2201.60;;;;;;4991140;28;20117;-54
2021/01/13 04:29:58;;;;;;;90.65;44.55;;;0.30;2201.60;;;;;;4991306;28;20131;-54
2021/01/13 04:32:24;;;;;;;82.53;40.70;;;0.50;2201.60;;;;;;4991176;28;20508;-55
2021/01/13 04:34:50;;;;;;;95.72;47.22;;;0.40;2201.60;;;;;;4991192;28;20066;-54
2021/01/13 04:37:18;;;;;;;86.80;43.28;;;0.70;2201.60;;;;;;4991135;28;20034;-54
2021/01/13 04:39:45;;;;;;;102.03;47.13;;;0.50;2201.60;;;;;;4990995;28;20034;-54
2021/01/13 04:42:12;;;;;;;92.20;47.88;;;0.40;2201.60;;;;;;4991020;28;20034;-53
2021/01/13 04:45:06;;;;;;;97.68;49.20;;;0.60;2201.60;;;;;;5010786;28;20046;-53
2021/01/13 04:47:51;;;;;;;100.70;55.17;;;0.60;2201.60;;;;;;5032056;28;20127;-53
2021/01/13 04:50:20;;;;;;;108.07;51.05;;;0.60;2201.60;;;;;;5032864;28;20037;-54
2021/01/13 04:52:51;;;;;;;87.22;43.85;;;0.30;2201.60;;;;;;5032515;28;20021;-54
2021/01/13 04:55:25;;;;;;;91.45;42.22;;;0.40;2201.60;;;;;;5032534;28;20030;-53
2021/01/13 04:58:13;;;;;;;88.05;41.17;;;0.30;2201.60;;;;;;5032217;28;20026;-54
2021/01/13 05:00:56;;;;;;;78.32;36.50;;;0.20;2201.60;;;;;;5032247;28;20025;-53
2021/01/13 05:03:42;;;;;;;78.20;35.70;;;0.10;2201.60;;;;;;5032015;28;20368;-53
2021/01/13 05:06:16;;;;;;;74.75;38.25;;;0.10;2201.60;;;;;;5031982;28;20041;-54
2021/01/13 05:09:11;;;;;;;78.37;37.77;;;12.90;2201.60;;;;;;5031825;28;20033;-54
2021/01/13 05:11:49;;;;;;;91.43;55.45;;;13.00;2201.60;;;;;;5031540;28;20067;-53
2021/01/13 05:14:18;;;;;;;74.00;38.55;;;13.00;2201.60;;;;;;5031967;28;20148;-56
2021/01/13 05:16:50;;;;;;;76.60;34.08;;;13.10;2201.60;;;;;;5031666;28;20488;-53
2021/01/13 05:19:31;;;;;;;71.07;33.55;;;13.00;2201.60;;;;;;5032042;28;20152;-53
2021/01/13 05:22:00;;;;;;;62.30;33.13;;;13.20;2201.60;;;;;;5031928;28;20021;-53
2021/01/13 05:24:29;;;;;;;78.45;37.60;;;13.10;2201.60;;;;;;5031964;28;20041;-53
2021/01/13 05:27:00;;;;;;;63.80;32.13;;;13.20;2201.60;;;;;;5031544;28;20063;-53
2021/01/13 05:29:32;;;;;;;73.65;32.85;;;13.20;2201.60;;;;;;5031885;28;20415;-53
2021/01/13 05:32:00;;;;;;;58.00;30.58;;;13.00;2201.60;;;;;;5031650;28;20030;-53
2021/01/13 05:34:31;;;;;;;61.28;31.10;;;0.20;2201.60;;;;;;5031922;28;20041;-56
2021/01/13 05:37:17;;;;;;;65.97;32.50;;;0.40;2201.60;;;;;;5031730;28;20159;-52
2021/01/13 05:39:45;;;;;;;67.35;31.55;;;0.60;2201.60;;;;;;5031458;28;20108;-54
2021/01/13 05:42:14;;;;;;;64.25;29.52;;;0.70;2201.60;;;;;;5031265;28;20031;-56
2021/01/13 05:44:40;;;;;;;71.10;35.90;;;0.90;2201.60;;;;;;5031347;28;20037;-53
2021/01/13 05:47:16;;;;;;;88.18;44.33;;;25.70;2201.60;;;;;;5031324;28;20021;-52
2021/01/13 05:49:42;;;;;;;152.00;77.40;;;25.80;2201.60;;;;;;5031369;28;20052;-53
2021/01/13 05:52:08;;;;;;;174.50;88.85;;;25.90;2201.60;;;;;;5031330;28;20034;-53
2021/01/13 05:54:38;;;;;;;86.57;47.67;;;26.00;2201.60;;;;;;5031087;28;20394;-53
2021/01/13 05:57:04;;;;;;;85.10;42.22;;;26.00;2201.60;;;;;;5029900;28;20238;-52
2021/01/13 05:59:33;;;;;;;81.32;44.20;;;26.00;2201.60;;;;;;5031054;28;20030;-53
2021/01/13 06:02:02;;;;;;;63.95;30.38;;;25.90;2201.60;;;;;;5031302;28;20029;-53
2021/01/13 06:04:28;;;;;;;59.35;33.25;;;25.80;2201.60;;;;;;5030867;28;20083;-53
2021/01/13 06:07:09;;;;;;;67.10;36.47;;;25.70;2201.60;;;;;;5030923;28;20221;-55
2021/01/13 06:09:42;;;;;;;86.82;44.40;;;25.60;2201.60;;;;;;5030678;28;20025;-54
2021/01/13 06:12:18;;;;;;;70.65;35.35;;;0.50;2201.60;;;;;;5030976;28;20036;-53
2021/01/13 06:14:52;;;;;;;97.43;51.83;;;0.60;2201.60;;;;;;5030593;28;20128;-54
2021/01/13 06:17:29;;;;;;;;;;;0.40;2201.60;;;;;;5031186;28;20037;-53
2021/01/13 06:19:56;;;;;;;85.78;43.80;;;0.20;2201.60;;;;;;5030563;28;20287;-54
2021/01/13 06:22:32;;;;;;;71.53;42.35;;;0.20;2201.60;;;;;;5030455;28;20074;-54
2021/01/13 06:25:04;;;;;;;122.80;67.22;;;0.60;2201.60;;;;;;5030558;28;20076;-64
2021/01/13 06:27:58;;;;;;;108.82;58.45;;;0.70;2201.60;;;;;;5030635;28;20021;-65
2021/01/13 06:30:29;;;;;;;132.65;69.25;;;0.90;2201.60;;;;;;5030455;28;20438;-56
2021/01/13 06:33:08;;;;;;;162.82;90.05;;;0.90;2201.60;;;;;;5030242;28;20391;-56
2021/01/13 06:35:42;;;;;;;189.13;94.20;;;25.60;2201.60;;;;;;5030205;28;20383;-56
2021/01/13 06:38:38;;;;;;;110.82;54.45;;;0.80;2201.60;;;;;;5030466;28;20025;-56
2021/01/13 06:41:03;;;;;;;91.75;51.35;;;25.70;2201.60;;;;;;5030187;28;20033;-56
2021/01/13 06:43:29;;;;;;;68.05;35.30;;;25.70;2201.60;;;;;;5030461;28;20047;-62
2021/01/13 06:45:56;;;;;;;452.80;227.57;;;25.90;2201.60;;;;;;5030064;28;20088;-53
2021/01/13 06:48:29;;;;;;;144.35;76.90;;;25.80;2201.60;;;;;;5029885;28;20042;-54
2021/01/13 06:50:59;;;;;;;80.72;48.85;;;25.70;2201.60;;;;;;5030270;28;20030;-54
2021/01/13 06:53:36;;;;;;;143.60;93.60;;;25.70;2201.60;;;;;;5030103;28;20069;-56
2021/01/13 06:56:10;;;;;;;112.43;82.40;;;25.70;2201.60;;;;;;5029896;28;20109;-54
2021/01/13 06:58:37;;;;;;;84.68;56.88;;;25.70;2201.60;;;;;;5030386;28;20018;-54
2021/01/13 07:01:05;;;;;;;67.88;40.35;;;25.70;2201.60;;;;;;5030069;28;20036;-54
2021/01/13 07:03:31;;;;;;;86.65;52.92;;;25.70;2201.60;;;;;;5029974;28;20100;-55
2021/01/13 07:06:08;;;;;;;68.57;36.25;;;25.80;2201.60;;;;;;5030128;28;20475;-60
2021/01/13 07:08:34;;;;;;;81.05;47.35;;;25.80;2201.60;;;;;;5029427;28;20021;-54
2021/01/13 07:11:05;;;;;;;63.80;36.05;;;25.90;2201.60;;;;;;5030295;28;20039;-54
2021/01/13 07:13:47;;;;;;;52.13;29.17;;;26.00;2201.60;;;;;;5029996;28;20048;-54
2021/01/13 07:16:15;;;;;;;54.28;28.05;;;26.10;2201.60;;;;;;5029732;28;20099;-55
2021/01/13 07:18:41;;;;;;;98.68;51.05;;;26.00;2201.60;;;;;;5029947;28;20214;-54
2021/01/13 07:21:11;;;;;;;55.28;26.75;;;26.20;2201.60;;;;;;5029944;28;20379;-54
2021/01/13 07:23:42;;;;;;;83.28;40.47;;;26.20;2201.60;;;;;;5029938;28;20111;-58
2021/01/13 07:26:07;;;;;;;55.50;31.83;;;26.30;2201.60;;;;;;5030145;28;20040;-54
2021/01/13 07:28:36;;;;;;;45.95;26.05;;;51.30;2201.60;;;;;;5029758;28;20025;-54
2021/01/13 07:31:03;;;;;;;46.38;26.70;;;51.40;2176.00;;;;;;5029644;28;20108;-53
2021/01/13 07:33:36;;;;;;;52.00;27.30;;;51.40;2176.00;;;;;;5029972;28;20030;-54
2021/01/13 07:36:04;;;;;;;67.15;42.00;;;51.80;2124.80;;;;;;5029776;28;20040;-53
2021/01/13 07:38:34;;;;;;;69.25;38.20;;;51.90;2150.40;;;;;;5029899;28;20049;-53
2021/01/13 07:40:59;;;;;;;64.65;37.25;;;52.00;2124.80;;;;;;5029964;28;20029;-54
2021/01/13 07:43:50;;;;;;;55.97;37.58;;;52.00;2124.80;;;;;;5029723;28;20018;-54
2021/01/13 07:46:26;;;;;;;56.85;34.97;;;52.10;2124.80;;;;;;5029437;28;20029;-54
2021/01/13 07:49:20;;;;;;;53.15;32.10;;;76.90;2099.20;;;;;;5029246;28;20088;-54
2021/01/13 07:51:52;;;;;;;46.20;28.98;;;77.00;2073.60;;;;;;5029689;28;20037;-54
2021/01/13 07:54:26;;;;;;;166.55;102.70;;;77.20;2073.60;;;;;;5029839;28;20033;-53
2021/01/13 07:56:55;;;;;;;148.25;86.53;;;77.30;2048.00;;;;;;5029465;28;20029;-57
2021/01/13 07:59:40;;;;;;;132.05;84.38;;;77.30;2073.60;;;;;;5029648;28;20439;-54
2021/01/13 08:02:17;;;;;;;81.93;54.17;;;77.60;2048.00;;;;;;5029612;28;20069;-55
2021/01/13 08:05:10;;;;;;;61.60;37.30;;;102.40;2022.40;;;;;;5029393;28;20044;-54
2021/01/13 08:07:38;;;;;;;55.58;30.17;;;77.60;2048.00;;;;;;5029471;28;20108;-55
2021/01/13 08:10:06;;;;;;;48.42;29.65;;;77.50;2073.60;;;;;;5029360;28;20025;-53
2021/01/13 08:13:10;;;;;;;45.15;27.45;;;77.70;2048.00;;;;;;5020613;28;20025;-55
2021/01/13 08:15:38;;;;;;;73.93;47.28;;;77.70;2048.00;;;;;;5027246;28;20033;-60
2021/01/13 08:18:55;;;;;;;39.25;26.27;;;102.40;2022.40;;;;;;5027926;28;20514;-54
2021/01/13 08:21:26;;;;;;;33.15;19.98;;;102.60;1996.80;;;;;;5030373;28;20028;-53
2021/01/13 08:24:03;;;;;;;497.38;328.83;;;102.80;1971.20;;;;;;5029373;28;20025;-53
2021/01/13 08:26:30;;;;;;;424.85;259.88;;;102.80;1971.20;;;;;;5028395;28;20400;-54
2021/01/13 08:28:57;;;;;;;501.70;342.75;;;102.50;2022.40;;;;;;5031863;28;20036;-53
2021/01/13 08:31:25;;;;;;;450.67;304.05;;;77.70;2048.00;;;;;;5031825;28;20104;-53
2021/01/13 08:34:22;;;;;;;637.15;464.02;;;77.70;2048.00;;;;;;5031646;28;20032;-54
2021/01/13 08:36:55;;;;;;;597.78;424.92;;;77.70;2048.00;;;;;;4989842;28;20058;-57
2021/01/13 08:39:31;;;;;;;354.08;225.35;;;102.60;2022.40;;;;;;4990104;28;20034;-55
2021/01/13 08:42:19;;;;;;;223.43;138.85;;;102.90;1971.20;;;;;;4990513;28;20505;-55
2021/01/13 08:44:45;;;;;;;177.52;114.65;;;103.10;1945.60;;;;;;4988187;28;20062;-54
2021/01/13 08:47:11;;;;;;;232.55;146.65;;;103.10;1945.60;;;;;;4989619;28;20038;-55
2021/01/13 08:49:37;;;;;;;202.75;132.52;;;103.10;1945.60;;;;;;4989360;28;20061;-54
2021/01/13 08:52:22;;;;;;;156.85;94.88;;;103.20;1945.60;;;;;;4990250;28;20022;-53
2021/01/13 08:54:56;;;;;;;83.43;51.60;;;128.10;1945.60;;;;;;4989192;28;20050;-52
2021/01/13 08:57:24;;;;;;;116.80;68.50;;;128.40;1920.00;;;;;;4987683;28;20559;-53
2021/01/13 08:59:50;;;;;;;140.65;89.43;;;128.60;1920.00;;;;;;4990303;28;20046;-56
2021/01/13 09:02:21;;;;;;;106.55;57.00;;;128.60;1894.40;;;;;;4988403;28;20069;-62
2021/01/13 09:04:49;;;;;;;105.43;68.95;;;128.80;1868.80;;;;;;4990107;28;20073;-62
2021/01/13 09:07:18;;;;;;;94.13;60.80;;;128.80;1868.80;;;;;;4986513;28;20558;-61
2021/01/13 09:09:54;;;;;;;131.88;79.38;;;153.60;1843.20;;;;;;4989840;28;20057;-59
2021/01/13 09:12:44;;;;;;;86.32;48.72;;;153.60;1843.20;;;;;;4995052;28;20043;-59
2021/01/13 09:15:14;;;;;;;65.50;39.50;;;153.60;1843.20;;;;;;5029423;28;20065;-61
2021/01/13 09:17:56;;;;;;;139.45;82.53;;;128.90;1868.80;;;;;;5028970;28;20982;-57
2021/01/13 09:20:22;;;;;;;200.18;123.00;;;128.90;1868.80;;;;;;5029047;28;20034;-61
2021/01/13 09:22:52;;;;;;;132.30;82.43;;;128.90;1868.80;;;;;;5029255;28;20022;-62
2021/01/13 09:25:29;;;;;;;342.27;230.07;;;128.80;1894.40;;;;;;5029059;28;20120;-62
2021/01/13 09:28:03;;;;;;;160.18;102.53;;;128.50;1920.00;;;;;;5028890;28;20036;-62
2021/01/13 09:30:33;;;;;;;115.75;71.90;;;128.30;1945.60;;;;;;5029097;28;20037;-61
2021/01/13 09:33:00;;;;;;;49.75;27.45;;;103.30;1945.60;;;;;;5028856;28;20064;-60
2021/01/13 09:35:31;;;;;;;40.20;23.80;;;103.20;1945.60;;;;;;5028996;28;20124;-63
2021/01/13 09:38:12;;;;;;;51.65;31.55;;;103.10;1945.60;;;;;;5028977;28;20097;-57
2021/01/13 09:41:01;;;;;;;42.78;25.10;;;103.10;1971.20;;;;;;5029464;28;20029;-61
2021/01/13 09:43:36;;;;;;;36.17;20.42;;;102.90;1996.80;;;;;;5024216;28;20108;-57
2021/01/13 09:46:29;;;;;;;37.80;20.00;;;102.70;1996.80;;;;;;5028937;28;20099;-55
2021/01/13 09:49:06;;;;;;;26.00;16.60;;;102.80;1971.20;;;;;;5028733;28;20077;-54
2021/01/13 09:51:33;;;;;;;26.15;14.63;;;102.80;1996.80;;;;;;5029457;28;20589;-55
2021/01/13 09:54:01;;;;;;;28.15;16.30;;;102.60;2048.00;;;;;;5031404;28;20069;-54
2021/01/13 09:56:28;;;;;;;24.65;14.50;;;102.50;2048.00;;;;;;5031433;28;20438;-55
2021/01/13 09:58:54;;;;;;;38.97;19.50;;;102.50;2048.00;;;;;;5031055;28;20410;-54
2021/01/13 10:01:26;;;;;;;27.20;15.98;;;102.50;2048.00;;;;;;5031352;28;20029;-54
2021/01/13 10:03:55;;;;;;;26.13;14.47;;;102.50;2073.60;;;;;;5030935;28;20025;-54
2021/01/13 10:06:31;;;;;;;25.77;15.45;;;102.60;2073.60;;;;;;5031018;28;20675;-55
2021/01/13 10:09:11;;;;;;;27.92;16.85;;;102.60;2073.60;;;;;;5030876;28;20410;-55
2021/01/13 10:11:38;;;;;;;27.40;13.35;;;102.60;2073.60;;;;;;5030689;28;20140;-54
2021/01/13 10:14:06;;;;;;;22.30;12.75;;;102.50;2073.60;;;;;;5030944;28;20410;-53
2021/01/13 10:16:32;;;;;;;22.55;13.07;;;102.50;2073.60;;;;;;5030440;28;20065;-55
2021/01/13 10:19:03;;;;;;;26.75;16.80;;;102.60;2073.60;;;;;;5029564;28;20429;-54
2021/01/13 10:21:42;;;;;;;22.52;12.65;;;102.50;2073.60;;;;;;5011240;28;20030;-54
2021/01/13 10:24:13;;;;;;;20.45;11.98;;;102.70;2073.60;;;;;;5010893;28;20121;-58
2021/01/13 10:26:49;;;;;;;24.67;13.73;;;102.70;2073.60;;;;;;5010931;28;20038;-54
2021/01/13 10:29:24;;;;;;;20.40;12.80;;;102.70;2073.60;;;;;;5010636;28;20469;-53
2021/01/13 10:31:51;;;;;;;21.63;12.85;;;102.80;2022.40;;;;;;5010697;28;20084;-54
2021/01/13 10:34:17;;;;;;;24.67;12.98;;;103.10;2022.40;;;;;;5010903;28;20041;-53
2021/01/13 10:36:45;;;;;;;22.23;12.60;;;128.00;1996.80;;;;;;5010669;28;20445;-53
2021/01/13 10:39:15;;;;;;;21.75;14.00;;;128.40;1971.20;;;;;;5010411;28;20030;-55
2021/01/13 10:41:50;;;;;;;27.20;15.30;;;153.60;1894.40;;;;;;5010545;28;20034;-54
2021/01/13 10:44:23;;;;;;;30.17;15.00;;;153.80;1868.80;;;;;;5010135;28;20058;-54
2021/01/13 10:46:59;;;;;;;21.85;14.80;;;154.10;1843.20;;;;;;5010488;28;20029;-54
2021/01/13 10:49:26;;;;;;;160.02;127.60;;;154.10;1843.20;;;;;;5010211;28;20100;-54
2021/01/13 10:52:01;;;;;;;49.95;33.83;;;154.00;1843.20;;;;;;5010182;28;20022;-54
2021/01/13 10:54:29;;;;;;;50.70;43.30;;;154.10;1817.60;;;;;;5010613;28;20041;-55
2021/01/13 10:57:15;;;;;;;24.02;17.65;;;154.10;1843.20;;;;;;5010281;28;20025;-53
2021/01/13 10:59:41;;;;;;;22.80;15.63;;;153.80;1868.80;;;;;;5010393;28;20430;-62
2021/01/13 11:02:16;;;;;;;23.67;14.88;;;153.80;1843.20;;;;;;5010345;28;20033;-60
2021/01/13 11:04:44;;;;;;;22.15;13.68;;;153.80;1868.80;;;;;;5010160;28;20037;-61
2021/01/13 11:07:17;;;;;;;16.88;11.35;;;153.90;1868.80;;;;;;5010562;28;20112;-55
2021/01/13 11:09:47;;;;;;;;;;;153.80;1868.80;;;;;;5010794;28;20018;-54
2021/01/13 11:12:24;;;;;;;30.83;19.27;;;153.90;1868.80;;;;;;5010226;28;19928;-54
2021/01/13 11:14:51;;;;;;;24.65;15.70;;;154.10;1843.20;;;;;;5010572;28;20026;-55
2021/01/13 11:17:21;;;;;;;26.40;15.52;;;154.10;1868.80;;;;;;5010275;28;20018;-53
2021/01/13 11:19:54;;;;;;;20.83;12.70;;;153.90;1843.20;;;;;;5010375;28;20480;-57
2021/01/13 11:22:30;;;;;;;24.33;13.95;;;153.60;1894.40;;;;;;5010938;28;20106;-61
2021/01/13 11:24:57;;;;;;;21.42;12.98;;;153.60;1894.40;;;;;;5010116;28;20497;-53
2021/01/13 11:27:24;;;;;;;21.75;13.80;;;128.90;1894.40;;;;;;5010058;28;20072;-54
2021/01/13 11:29:54;;;;;;;27.10;15.57;;;128.90;1920.00;;;;;;5010220;28;20034;-54
2021/01/13 11:32:22;;;;;;;31.05;19.95;;;128.80;1920.00;;;;;;5010114;28;20026;-54
2021/01/13 11:34:53;;;;;;;27.23;14.63;;;128.90;1920.00;;;;;;5010121;28;20048;-55
2021/01/13 11:37:42;;;;;;;26.73;14.95;;;128.80;1920.00;;;;;;5017375;28;20495;-54
2021/01/13 11:40:14;;;;;;;23.35;14.52;;;128.80;1920.00;;;;;;5028835;28;20037;-54
2021/01/13 11:43:17;;;;;;;21.30;14.63;;;128.60;1945.60;;;;;;5029171;28;20026;-54
2021/01/13 11:46:03;;;;;;;19.40;11.48;;;128.80;1920.00;;;;;;5027896;28;20025;-54
2021/01/13 11:48:57;;;;;;;19.73;12.90;;;128.90;1920.00;;;;;;5028799;28;20050;-54
2021/01/13 11:51:27;;;;;;;27.77;16.52;;;153.60;1920.00;;;;;;5026829;28;20049;-54
2021/01/13 11:53:53;;;;;;;25.77;16.70;;;153.60;1920.00;;;;;;5026960;28;20030;-54
2021/01/13 11:56:31;;;;;;;43.60;35.38;;;153.70;1894.40;;;;;;5030729;28;20045;-54
2021/01/13 11:58:58;;;;;;;19.95;12.43;;;153.80;1894.40;;;;;;5030894;28;20022;-59
2021/01/13 12:01:25;;;;;;;21.55;14.18;;;128.90;1920.00;;;;;;5030423;28;20125;-61
2021/01/13 12:04:04;;;;;;;27.75;14.80;;;128.60;1945.60;;;;;;5031108;28;20076;-53
2021/01/13 12:06:31;;;;;;;20.25;11.95;;;128.70;1945.60;;;;;;5031143;28;20487;-55
2021/01/13 12:08:57;;;;;;;35.70;31.83;;;128.50;1945.60;;;;;;5030975;28;20435;-55
2021/01/13 12:11:23;;;;;;;20.90;11.90;;;128.80;1945.60;;;;;;5030832;28;20228;-54
2021/01/13 12:13:51;;;;;;;21.63;13.52;;;153.60;1894.40;;;;;;5031122;28;20446;-54
2021/01/13 12:16:22;;;;;;;18.92;12.82;;;153.70;1894.40;;;;;;5031082;28;20554;-54
2021/01/13 12:18:49;;;;;;;24.95;15.75;;;153.80;1894.40;;;;;;5030823;28;20033;-53
2021/01/13 12:21:17;;;;;;;49.58;30.33;;;153.90;1868.80;;;;;;5030519;28;20049;-54
2021/01/13 12:23:46;;;;;;;45.58;26.92;;;154.00;1868.80;;;;;;5030538;28;20029;-53
2021/01/13 12:26:22;;;;;;;37.75;20.30;;;153.90;1868.80;;;;;;5030193;28;20111;-57
2021/01/13 12:28:50;;;;;;;36.47;21.13;;;153.90;1894.40;;;;;;5032427;28;20034;-55
2021/01/13 12:31:17;;;;;;;24.05;16.05;;;153.80;1894.40;;;;;;5033092;28;20029;-54